Capitol Logistics 924

Operating for DHL



ESSA
Arlanda
Stockholm, SE
EDDK
Cologne Bonn Airport
Cologne, DE

Activity Log

Date Flight Route Aircraft Duration
02/10/2022 CPX924 PETE1K PETEV N872 ELPAX Z703 UMIXA KULUD Z703 ALS M852 HLZ P12 ESADU T858 KOPAG KOPA32 A30F 2h 20m
10/05/2021 CPX913 NOSL5G NOSLI N850 LARBU Z189 RUNER T858 KOPAG KOPA14 A30F 2h 08m

Route Details

Aircraft Information
Group: European Fleet
Types: A30F,A31F,B738
Route Data
Demand: L
Distance: 643nm
Duration: 2h 29m
Recm'd Route: PETE1G PETEV N872 ELPAX Z703 UMIXA KULUD Z703 ALS M852 HLZ P12 ESADU T858 KOPAG KOPA14
Origin Wx: ESSA 272050Z 27007KT 9999 SCT015 SCT051 09/08 Q0995 NOSIG
Dest. Wx: EDDK 272050Z AUTO 32010KT CAVOK 12/04 Q1023 NOSIG
Notes:

Financial History
Total Freight: 98,001lbs
Average Load: 49,001lbs/flt
Fuel Used: 45,801lbs
Avg. Fuel Used: 22,901lbs/flt
Fuel Expense: $16,008
Avg. Fuel Expense: $8,004
Avg. Fuel Cost: $0.35/lbs
Total Gross Income: $200,020
Pilot Pay: $518
Total Expenses: $29,170
Total Revenue: $153,728
Average Revenue: $100,010.02